Airfield :







YOU CAN JOIN US ON...

 
LOGIN :

Register | Disclaimer

   EN    FR    IT 

 









Legend :    VFR   Marginal VFR   IFR   Intensive IFR   Very Intensive IFR
Visi :
Ceiling :
>= 8 km
>= 3000ft
5 to 8 km
1000 to 3000 ft
1500m to 5 km
500 to 1000 ft
800 to 1500m
200 to 500 ft
< 800m
< 200 ft
Symbols :   Thunderstorms  Fog  Heavy snow  Heavy precipitations  Wind > 20 kt






- Airport Elevation : 83 ft


KBHB - Hancock County-Bar Harbor

CURRENT METAR :
  • 281456Z AUTO 21011KT 8SM OVC002 14/14 A3013 RMK AO2 SLP205 T01440139 56009

EXPIRED METARs :
  • 281439Z AUTO 20007KT 7SM OVC002 14/14 A3013 RMK AO2
  • 281356Z AUTO 20011KT 2SM BR OVC002 14/13 A3014 RMK AO2 VIS 1V3 SLP208 T01390133
  • 281336Z AUTO 21007KT 3SM BR OVC002 14/14 A3015 RMK AO2
  • 281301Z AUTO 21013KT 1 1/4SM BR OVC002 14/14 A3014 RMK AO2
  • 281256Z AUTO 21012KT 3/4SM BR OVC002 14/14 A3015 RMK AO2 SLP210 T01390139 RVRNO
  • 281222Z AUTO 20010KT 3/4SM BR OVC002 14/13 A3016 RMK AO2 RVRNO

TAF KBHB
Valid from the 28 at 14:00 until the 29 at 12:00 UTC


281402Z 2814/2912 22011G19KT 2SM BR OVC002
FM281600 22014G22KT P6SM SCT200
FM290500 22010KT P6SM BKN050 WS020/24040KT
FM290600 22010KT 2SM BR BKN040 WS020/24040KT
FM290900 21010KT 2SM BR OVC005 WS020/24040KT
KZBW FIR / North America



MET'MAP, your aeronautical weather chart ! - Copyright ORBIFLY December 2007 - Disclaimer

ORBIFLY MET'MAP TEAM :

Programming & Development : Alexandra Zaïnal
Concept & original design : Baudouin d'Aumeries
Assistance for programming : Marc-Olivier Méhu
Technical & hardware support : Manuel Goepfert

Contact : metmap@orbifly.com




SOURCES & CREDITS :

   NOAA